createdAt,value
2018-08-19T00:02:10.096Z,21.12
2018-08-19T00:04:36.411Z,21.18
2018-08-19T00:07:02.723Z,21.19
2018-08-19T00:09:29.037Z,21.14
2018-08-19T00:11:55.349Z,20.96
2018-08-19T00:14:21.709Z,20.91
2018-08-19T00:16:48.019Z,20.91
2018-08-19T00:19:14.333Z,20.92
2018-08-19T00:21:40.727Z,20.89
2018-08-19T00:24:06.985Z,20.84
2018-08-19T00:26:33.291Z,20.59
2018-08-19T00:28:59.610Z,20.39
2018-08-19T00:31:25.922Z,20.28
2018-08-19T00:33:52.246Z,20.25
2018-08-19T00:36:18.538Z,20.31
2018-08-19T00:38:44.848Z,20.36
2018-08-19T00:41:11.161Z,20.42
2018-08-19T00:43:37.484Z,20.34
2018-08-19T00:46:03.832Z,20.31
2018-08-19T00:48:30.187Z,20.26
2018-08-19T00:50:56.503Z,20.12
2018-08-19T00:53:22.818Z,20.08
2018-08-19T00:55:49.165Z,20.04
2018-08-19T00:58:15.470Z,20.02
2018-08-19T01:00:41.786Z,19.95
2018-08-19T01:03:08.101Z,19.92
2018-08-19T01:05:34.404Z,19.97
2018-08-19T01:08:00.724Z,20.02
2018-08-19T01:10:27.036Z,20.02
2018-08-19T01:12:53.362Z,19.97
2018-08-19T01:15:19.676Z,19.99
2018-08-19T01:17:45.989Z,19.92
2018-08-19T01:20:12.306Z,19.97
2018-08-19T01:22:38.617Z,19.92
2018-08-19T01:25:04.938Z,20.03
2018-08-19T01:27:31.253Z,20.08
2018-08-19T01:29:57.568Z,19.91
2018-08-19T01:32:23.888Z,19.81
2018-08-19T01:34:50.201Z,19.53
2018-08-19T01:37:16.513Z,19.59
2018-08-19T01:39:42.824Z,19.48
2018-08-19T01:42:09.135Z,19.48
2018-08-19T01:44:35.443Z,19.70
2018-08-19T01:47:01.756Z,19.92
2018-08-19T01:49:28.060Z,20.02
2018-08-19T01:51:54.367Z,19.81
2018-08-19T01:54:20.680Z,19.64
2018-08-19T01:56:46.995Z,19.64
2018-08-19T01:59:13.315Z,19.69
2018-08-19T02:01:39.620Z,19.66
2018-08-19T02:04:05.938Z,19.70
2018-08-19T02:06:32.284Z,19.67
2018-08-19T02:08:58.648Z,19.62
2018-08-19T02:11:24.965Z,19.61
2018-08-19T02:13:51.310Z,19.61
2018-08-19T02:16:17.644Z,19.67
2018-08-19T02:18:43.986Z,19.64
2018-08-19T02:21:10.298Z,19.66
2018-08-19T02:23:36.611Z,19.61
2018-08-19T02:26:02.966Z,19.57
2018-08-19T02:28:29.270Z,19.75
2018-08-19T02:30:55.641Z,19.71
2018-08-19T02:33:21.953Z,19.66
2018-08-19T02:35:48.260Z,19.51
2018-08-19T02:38:14.570Z,19.31
2018-08-19T02:40:40.880Z,19.26
2018-08-19T02:43:07.189Z,19.07
2018-08-19T02:45:33.501Z,19.07
2018-08-19T02:47:59.807Z,19.13
2018-08-19T02:50:26.121Z,19.08
2018-08-19T02:52:52.439Z,18.99
2018-08-19T02:55:18.752Z,19.02
2018-08-19T02:57:45.072Z,19.19
2018-08-19T03:00:11.382Z,19.17
2018-08-19T03:02:37.692Z,19.02
2018-08-19T03:05:04.005Z,18.99
2018-08-19T03:07:30.318Z,19.12
2018-08-19T03:09:56.673Z,19.13
2018-08-19T03:12:23.018Z,19.15
2018-08-19T03:14:49.369Z,19.25
2018-08-19T03:17:15.726Z,19.27
2018-08-19T03:19:42.048Z,19.26
2018-08-19T03:22:08.369Z,19.23
2018-08-19T03:24:34.678Z,19.27
2018-08-19T03:27:01.039Z,19.01
2018-08-19T03:29:27.342Z,18.89
2018-08-19T03:31:53.658Z,18.92
2018-08-19T03:34:19.976Z,18.86
2018-08-19T03:36:46.293Z,18.79
2018-08-19T03:39:12.608Z,18.76
2018-08-19T03:41:38.920Z,18.77
2018-08-19T03:44:05.230Z,18.94
2018-08-19T03:46:31.537Z,18.89
2018-08-19T03:48:57.845Z,18.65
2018-08-19T03:51:24.195Z,18.58
2018-08-19T03:53:50.509Z,18.51
2018-08-19T03:56:16.827Z,18.45
2018-08-19T03:58:43.184Z,18.42
2018-08-19T04:01:09.520Z,18.29
2018-08-19T04:03:35.828Z,18.46
2018-08-19T04:06:02.144Z,18.72
2018-08-19T04:08:28.449Z,18.77
2018-08-19T04:10:54.773Z,18.70
2018-08-19T04:13:21.123Z,18.66
2018-08-19T04:15:47.431Z,18.70
2018-08-19T04:18:13.751Z,18.71
2018-08-19T04:20:40.061Z,18.76
2018-08-19T04:23:06.375Z,18.83
2018-08-19T04:25:32.694Z,18.78
2018-08-19T04:27:59.024Z,18.93
2018-08-19T04:30:25.330Z,19.17
2018-08-19T04:32:51.674Z,19.42
2018-08-19T04:35:17.990Z,19.63
2018-08-19T04:37:44.298Z,19.88
2018-08-19T04:40:10.618Z,20.24
2018-08-19T04:42:36.981Z,20.53
2018-08-19T04:45:03.282Z,20.70
2018-08-19T04:47:29.600Z,20.89
2018-08-19T04:49:55.911Z,21.86
2018-08-19T04:52:22.224Z,22.81
2018-08-19T04:54:48.560Z,23.37
2018-08-19T04:57:14.879Z,23.63
2018-08-19T04:59:41.193Z,23.85
2018-08-19T05:02:07.523Z,23.24
2018-08-19T05:04:33.822Z,22.88
2018-08-19T05:07:00.183Z,23.31
2018-08-19T05:09:26.494Z,24.08
2018-08-19T05:11:52.805Z,23.84
2018-08-19T05:14:19.117Z,23.77
2018-08-19T05:16:45.430Z,24.15
2018-08-19T05:19:11.751Z,24.46
2018-08-19T05:21:38.058Z,24.64
2018-08-19T05:24:04.372Z,24.32
2018-08-19T05:26:30.694Z,24.74
2018-08-19T05:28:56.999Z,25.05
2018-08-19T05:31:23.367Z,25.13
2018-08-19T05:33:49.631Z,24.94
2018-08-19T05:36:15.963Z,24.79
2018-08-19T05:38:42.299Z,24.81
2018-08-19T05:41:08.609Z,25.06
2018-08-19T05:43:34.915Z,25.20
2018-08-19T05:46:01.277Z,24.88
2018-08-19T05:48:27.589Z,24.93
2018-08-19T05:50:53.897Z,25.33
2018-08-19T05:53:20.212Z,25.34
2018-08-19T05:55:46.524Z,25.29
2018-08-19T05:58:12.828Z,25.18
2018-08-19T06:00:39.138Z,24.94
2018-08-19T06:03:05.447Z,25.09
2018-08-19T06:05:31.761Z,25.22
2018-08-19T06:07:58.070Z,25.43
2018-08-19T06:10:24.381Z,25.53
2018-08-19T06:12:50.697Z,25.64
2018-08-19T06:15:17.015Z,25.73
2018-08-19T06:17:43.332Z,25.75
2018-08-19T06:20:09.650Z,25.78
2018-08-19T06:22:35.959Z,25.87
2018-08-19T06:25:02.311Z,26.13
2018-08-19T06:27:28.631Z,26.32
2018-08-19T06:29:54.946Z,26.41
2018-08-19T06:32:21.252Z,26.54
2018-08-19T06:34:47.668Z,26.56
2018-08-19T06:37:13.876Z,26.44
2018-08-19T06:39:40.189Z,26.59
2018-08-19T06:42:06.503Z,26.73
2018-08-19T06:44:32.840Z,27.06
2018-08-19T06:46:59.148Z,27.49
2018-08-19T06:49:25.465Z,27.20
2018-08-19T06:51:51.908Z,26.86
2018-08-19T06:54:18.270Z,26.77
2018-08-19T06:56:44.582Z,27.25
2018-08-19T06:59:10.891Z,27.52
2018-08-19T07:01:37.213Z,27.26
2018-08-19T07:04:03.534Z,26.64
2018-08-19T07:06:29.849Z,26.89
2018-08-19T07:08:56.271Z,27.55
2018-08-19T07:11:22.582Z,28.04
2018-08-19T07:13:48.900Z,28.15
2018-08-19T07:16:15.230Z,28.15
2018-08-19T07:18:41.597Z,28.43
2018-08-19T07:21:07.854Z,28.68
2018-08-19T07:23:34.171Z,28.81
2018-08-19T07:26:00.480Z,28.94
2018-08-19T07:28:26.833Z,29.12
2018-08-19T07:30:53.138Z,29.16
2018-08-19T07:33:19.451Z,29.26
2018-08-19T07:35:45.760Z,29.06
2018-08-19T07:38:12.063Z,29.12
2018-08-19T07:40:38.381Z,29.19
2018-08-19T07:43:04.699Z,29.43
2018-08-19T07:45:31.010Z,29.36
2018-08-19T07:47:57.335Z,29.31
2018-08-19T07:50:23.662Z,29.52
2018-08-19T07:52:50.055Z,29.46
2018-08-19T07:55:16.366Z,29.67
2018-08-19T07:57:42.676Z,30.02
2018-08-19T08:00:09.048Z,30.14
2018-08-19T08:02:35.349Z,30.18
2018-08-19T08:05:01.660Z,30.25
2018-08-19T08:07:27.981Z,30.45
2018-08-19T08:09:54.298Z,31.05
2018-08-19T08:12:20.609Z,31.55
2018-08-19T08:14:46.953Z,31.28
2018-08-19T08:17:13.268Z,30.83
2018-08-19T08:19:39.587Z,31.03
2018-08-19T08:22:05.903Z,31.29
2018-08-19T08:24:32.226Z,30.92
2018-08-19T08:26:58.537Z,31.22
2018-08-19T08:29:24.850Z,31.84
2018-08-19T08:31:51.162Z,32.24
2018-08-19T08:34:17.533Z,32.30
2018-08-19T08:36:43.798Z,32.29
2018-08-19T08:39:10.171Z,32.15
2018-08-19T08:41:36.477Z,32.11
2018-08-19T08:44:02.782Z,32.39
2018-08-19T08:46:29.102Z,32.83
2018-08-19T08:48:55.432Z,32.97
2018-08-19T08:51:21.740Z,32.70
2018-08-19T08:53:48.052Z,32.60
2018-08-19T08:56:14.397Z,32.34
2018-08-19T08:58:40.675Z,32.36
2018-08-19T09:01:06.992Z,32.79
2018-08-19T09:03:33.306Z,32.86
2018-08-19T09:05:59.627Z,32.71
2018-08-19T09:08:25.988Z,32.41
2018-08-19T09:10:52.320Z,32.17
2018-08-19T09:13:18.637Z,32.53
2018-08-19T09:15:44.979Z,33.10
2018-08-19T09:18:11.264Z,33.02
2018-08-19T09:20:37.568Z,32.91
2018-08-19T09:23:03.972Z,32.75
2018-08-19T09:25:30.200Z,32.82
2018-08-19T09:27:56.561Z,32.81
2018-08-19T09:30:22.878Z,33.05
2018-08-19T09:32:49.316Z,33.72
2018-08-19T09:35:15.589Z,33.90
2018-08-19T09:37:41.916Z,33.28
2018-08-19T09:40:08.237Z,33.62
2018-08-19T09:42:34.551Z,32.97
2018-08-19T09:45:00.857Z,33.23
2018-08-19T09:47:27.218Z,33.35
2018-08-19T09:49:53.492Z,33.79
2018-08-19T09:52:19.844Z,33.29
2018-08-19T09:54:46.154Z,33.15
2018-08-19T09:57:12.468Z,33.92
2018-08-19T09:59:38.782Z,33.62
2018-08-19T10:02:05.100Z,33.36
2018-08-19T10:04:31.414Z,32.97
2018-08-19T10:06:57.736Z,32.99
2018-08-19T10:09:24.090Z,33.49
2018-08-19T10:11:50.408Z,33.44
2018-08-19T10:14:16.718Z,33.53
2018-08-19T10:16:43.062Z,34.12
2018-08-19T10:19:09.343Z,34.25
2018-08-19T10:21:35.653Z,34.11
2018-08-19T10:24:01.965Z,34.43
2018-08-19T10:26:28.324Z,34.97
2018-08-19T10:28:55.986Z,35.06
2018-08-19T10:31:22.334Z,35.17
2018-08-19T10:33:48.612Z,34.61
2018-08-19T10:36:14.929Z,34.43
2018-08-19T10:38:41.248Z,34.24
2018-08-19T10:41:07.558Z,33.61
2018-08-19T10:43:33.870Z,33.32
2018-08-19T10:46:00.185Z,33.67
2018-08-19T10:48:26.508Z,33.95
2018-08-19T10:50:52.831Z,34.00
2018-08-19T10:53:19.161Z,34.29
2018-08-19T10:55:45.480Z,34.28
2018-08-19T10:58:11.803Z,34.04
2018-08-19T11:00:38.162Z,34.24
2018-08-19T11:03:04.479Z,34.49
2018-08-19T11:05:30.792Z,34.74
2018-08-19T11:07:57.120Z,34.64
2018-08-19T11:10:23.424Z,34.26
2018-08-19T11:12:49.731Z,34.41
2018-08-19T11:15:16.043Z,34.44
2018-08-19T11:17:42.391Z,34.69
2018-08-19T11:20:08.700Z,34.80
2018-08-19T11:22:35.054Z,34.71
2018-08-19T11:25:01.372Z,33.85
2018-08-19T11:27:27.720Z,34.02
2018-08-19T11:29:54.000Z,34.51
2018-08-19T11:32:20.312Z,34.38
2018-08-19T11:34:46.622Z,34.06
2018-08-19T11:37:12.937Z,34.67
2018-08-19T11:39:39.245Z,33.54
2018-08-19T11:42:05.601Z,32.59
2018-08-19T11:44:31.916Z,32.10
2018-08-19T11:46:58.271Z,31.67
2018-08-19T11:49:24.602Z,31.35
2018-08-19T11:51:50.979Z,31.23
2018-08-19T11:54:17.310Z,30.98
2018-08-19T11:56:43.612Z,30.89
2018-08-19T11:59:09.927Z,31.44
2018-08-19T12:01:36.235Z,32.40
2018-08-19T12:04:02.555Z,33.18
2018-08-19T12:06:28.882Z,33.46
2018-08-19T12:08:55.202Z,33.00
2018-08-19T12:11:21.512Z,32.78
2018-08-19T12:13:52.809Z,33.48
2018-08-19T12:16:14.650Z,33.02
2018-08-19T12:18:40.948Z,33.25
2018-08-19T12:21:07.266Z,32.65
2018-08-19T12:23:33.613Z,31.93
2018-08-19T12:25:59.929Z,31.88
2018-08-19T12:28:29.479Z,31.67
2018-08-19T12:30:55.789Z,31.35
2018-08-19T12:33:22.128Z,31.13
2018-08-19T12:35:48.445Z,31.32
2018-08-19T12:38:14.759Z,32.08
2018-08-19T12:40:41.110Z,32.79
2018-08-19T12:43:07.420Z,33.45
2018-08-19T12:45:33.736Z,32.87
2018-08-19T12:48:00.047Z,31.35
2018-08-19T12:50:26.356Z,30.06
2018-08-19T12:52:52.675Z,29.12
2018-08-19T12:55:18.981Z,29.22
2018-08-19T12:57:45.371Z,29.00
2018-08-19T13:00:11.681Z,26.35
2018-08-19T13:02:37.998Z,22.92
2018-08-19T13:05:18.556Z,21.64
2018-08-19T13:07:44.731Z,21.66
2018-08-19T13:10:11.042Z,23.32
2018-08-19T13:12:37.352Z,24.21
2018-08-19T13:15:03.753Z,24.85
2018-08-19T13:17:40.658Z,25.30
2018-08-19T13:20:06.981Z,25.42
2018-08-19T13:22:33.297Z,25.32
2018-08-19T13:24:59.651Z,25.49
2018-08-19T13:27:26.010Z,25.69
2018-08-19T13:29:52.329Z,25.81
2018-08-19T13:32:18.641Z,25.97
2018-08-19T13:34:45.038Z,26.13
2018-08-19T13:37:11.389Z,26.34
2018-08-19T13:39:37.694Z,26.49
2018-08-19T13:42:04.012Z,26.65
2018-08-19T13:44:30.319Z,26.77
2018-08-19T13:46:56.682Z,26.90
2018-08-19T13:49:22.986Z,26.99
2018-08-19T13:51:49.296Z,27.08
2018-08-19T13:54:15.606Z,27.15
2018-08-19T13:56:41.926Z,27.09
2018-08-19T13:59:08.251Z,27.04
2018-08-19T14:01:34.567Z,27.11
2018-08-19T14:04:00.911Z,27.21
2018-08-19T14:06:27.224Z,27.26
2018-08-19T14:08:53.536Z,27.41
2018-08-19T14:11:19.847Z,27.52
2018-08-19T14:13:46.157Z,27.62
2018-08-19T14:16:12.479Z,27.70
2018-08-19T14:18:38.794Z,27.72
2018-08-19T14:21:05.111Z,27.74
2018-08-19T14:23:31.424Z,27.77
2018-08-19T14:25:57.751Z,27.73
2018-08-19T14:28:24.143Z,27.77
2018-08-19T14:30:50.509Z,27.81
2018-08-19T14:33:19.000Z,27.95
2018-08-19T14:35:44.091Z,28.01
2018-08-19T14:38:10.403Z,28.01
2018-08-19T14:40:36.733Z,27.96
2018-08-19T14:43:03.039Z,27.93
2018-08-19T14:45:30.544Z,27.93
2018-08-19T14:47:56.883Z,27.92
2018-08-19T14:50:23.193Z,27.96
2018-08-19T14:52:49.509Z,28.03
2018-08-19T14:55:15.828Z,28.06
2018-08-19T14:57:42.139Z,28.10
2018-08-19T15:00:08.449Z,28.12
2018-08-19T15:02:34.760Z,28.13
2018-08-19T15:05:01.088Z,28.13
2018-08-19T15:07:27.394Z,28.13
2018-08-19T15:09:53.845Z,28.19
2018-08-19T15:12:20.055Z,28.21
2018-08-19T15:14:46.367Z,28.23
2018-08-19T15:17:12.678Z,28.21
2018-08-19T15:19:39.017Z,28.25
2018-08-19T15:22:05.342Z,28.28
2018-08-19T15:24:31.653Z,28.35
2018-08-19T15:26:57.979Z,28.45
2018-08-19T15:29:24.332Z,28.39
2018-08-19T15:31:50.740Z,28.32
2018-08-19T15:34:17.096Z,28.26
2018-08-19T15:36:43.413Z,28.29
2018-08-19T15:39:09.746Z,28.28
2018-08-19T15:41:36.061Z,28.21
2018-08-19T15:44:02.408Z,28.22
2018-08-19T15:46:28.727Z,28.11
2018-08-19T15:48:55.090Z,28.04
2018-08-19T15:51:21.431Z,28.01
2018-08-19T15:53:47.745Z,27.99
2018-08-19T15:56:14.051Z,27.98
2018-08-19T15:58:40.427Z,27.90
2018-08-19T16:01:06.729Z,27.92
2018-08-19T16:03:33.047Z,27.91
2018-08-19T16:05:59.367Z,27.91
2018-08-19T16:08:25.682Z,27.91
2018-08-19T16:10:51.994Z,27.90
2018-08-19T16:13:18.314Z,27.91
2018-08-19T16:15:44.621Z,27.91
2018-08-19T16:18:10.942Z,27.86
2018-08-19T16:20:37.250Z,27.85
2018-08-19T16:23:03.579Z,27.83
2018-08-19T16:25:29.892Z,27.79
2018-08-19T16:27:56.195Z,27.72
2018-08-19T16:30:22.514Z,27.62
2018-08-19T16:32:48.830Z,27.55
2018-08-19T16:35:15.150Z,27.49
2018-08-19T16:37:41.506Z,27.44
2018-08-19T16:40:07.825Z,27.41
2018-08-19T16:42:34.131Z,27.36
2018-08-19T16:45:00.489Z,27.30
2018-08-19T16:47:26.797Z,27.23
2018-08-19T16:49:53.133Z,27.19
2018-08-19T16:52:19.446Z,27.16
2018-08-19T16:54:45.760Z,27.14
2018-08-19T16:57:12.178Z,27.07
2018-08-19T16:59:38.452Z,27.02
2018-08-19T17:02:04.769Z,26.97
2018-08-19T17:04:31.080Z,26.94
2018-08-19T17:06:57.394Z,26.90
2018-08-19T17:09:23.700Z,26.84
2018-08-19T17:11:50.011Z,26.78
2018-08-19T17:14:16.374Z,26.73
2018-08-19T17:16:42.687Z,26.67
2018-08-19T17:19:09.000Z,26.63
2018-08-19T17:21:35.311Z,26.58
2018-08-19T17:24:01.656Z,26.52
2018-08-19T17:26:28.000Z,26.46
2018-08-19T17:28:54.247Z,26.40
2018-08-19T17:31:20.577Z,26.33
2018-08-19T17:33:46.908Z,26.28
2018-08-19T17:36:13.215Z,26.21
2018-08-19T17:38:39.541Z,26.13
2018-08-19T17:41:05.849Z,26.08
2018-08-19T17:43:32.162Z,26.06
2018-08-19T17:45:58.479Z,26.03
2018-08-19T17:48:24.787Z,26.02
2018-08-19T17:50:51.095Z,25.97
2018-08-19T17:53:17.407Z,25.88
2018-08-19T17:55:43.729Z,25.79
2018-08-19T17:58:10.039Z,25.69
2018-08-19T18:00:36.346Z,25.64
2018-08-19T18:03:02.652Z,25.57
2018-08-19T18:05:28.985Z,25.50
2018-08-19T18:07:55.281Z,25.43
2018-08-19T18:10:21.606Z,25.46
2018-08-19T18:12:47.920Z,25.44
2018-08-19T18:15:14.298Z,25.33
2018-08-19T18:17:40.564Z,25.25
2018-08-19T18:20:06.883Z,25.39
2018-08-19T18:22:33.279Z,25.40
2018-08-19T18:24:59.645Z,25.50
2018-08-19T18:27:25.973Z,25.46
2018-08-19T18:29:52.299Z,25.43
2018-08-19T18:32:18.634Z,25.38
2018-08-19T18:34:44.946Z,25.22
2018-08-19T18:37:11.265Z,25.16
2018-08-19T18:39:37.580Z,25.15
2018-08-19T18:42:03.922Z,25.05
2018-08-19T18:44:30.250Z,25.00
2018-08-19T18:46:56.574Z,25.05
2018-08-19T18:49:22.910Z,25.05
2018-08-19T18:51:49.232Z,25.02
2018-08-19T18:54:15.594Z,25.04
2018-08-19T18:56:41.903Z,25.01
2018-08-19T18:59:08.232Z,24.80
2018-08-19T19:01:34.541Z,24.58
2018-08-19T19:04:01.117Z,24.65
2018-08-19T19:06:27.480Z,24.70
2018-08-19T19:08:53.789Z,24.82
2018-08-19T19:11:20.100Z,24.85
2018-08-19T19:13:46.412Z,24.80
2018-08-19T19:16:12.718Z,24.83
2018-08-19T19:18:39.036Z,24.77
2018-08-19T19:21:05.350Z,24.74
2018-08-19T19:23:31.742Z,24.65
2018-08-19T19:25:58.053Z,24.50
2018-08-19T19:28:24.424Z,24.55
2018-08-19T19:30:50.726Z,24.58
2018-08-19T19:33:17.042Z,24.46
2018-08-19T19:35:43.384Z,24.46
2018-08-19T19:38:09.691Z,24.36
2018-08-19T19:40:36.035Z,24.30
2018-08-19T19:43:02.354Z,24.23
2018-08-19T19:45:28.676Z,24.23
2018-08-19T19:47:54.996Z,24.28
2018-08-19T19:50:21.311Z,24.15
2018-08-19T19:52:47.616Z,24.10
2018-08-19T19:55:13.957Z,24.00
2018-08-19T19:57:40.241Z,23.97
2018-08-19T20:00:06.612Z,23.76
2018-08-19T20:02:32.920Z,23.70
2018-08-19T20:04:59.263Z,23.68
2018-08-19T20:07:25.633Z,23.63
2018-08-19T20:09:51.944Z,23.69
2018-08-19T20:12:18.265Z,23.66
2018-08-19T20:14:44.576Z,23.60
2018-08-19T20:17:10.902Z,23.52
2018-08-19T20:19:37.238Z,23.43
2018-08-19T20:22:03.565Z,23.34
2018-08-19T20:24:29.884Z,23.32
2018-08-19T20:26:56.210Z,23.29
2018-08-19T20:29:22.578Z,23.22
2018-08-19T20:31:48.892Z,23.16
2018-08-19T20:34:15.203Z,23.16
2018-08-19T20:36:41.536Z,23.13
2018-08-19T20:39:07.852Z,23.14
2018-08-19T20:41:34.161Z,23.11
2018-08-19T20:44:00.490Z,23.12
2018-08-19T20:46:26.818Z,23.13
2018-08-19T20:48:53.155Z,23.14
2018-08-19T20:51:19.485Z,23.15
2018-08-19T20:53:45.820Z,23.17
2018-08-19T20:56:12.142Z,23.22
2018-08-19T20:58:38.446Z,23.31
2018-08-19T21:01:04.758Z,23.32
2018-08-19T21:03:31.072Z,23.34
2018-08-19T21:05:57.397Z,23.33
2018-08-19T21:08:23.714Z,23.30
2018-08-19T21:10:50.022Z,23.28
2018-08-19T21:13:16.351Z,23.26
2018-08-19T21:15:42.665Z,23.12
2018-08-19T21:18:08.996Z,23.04
2018-08-19T21:20:35.314Z,23.03
2018-08-19T21:23:01.672Z,23.02
2018-08-19T21:25:27.990Z,23.01
2018-08-19T21:27:54.303Z,23.03
2018-08-19T21:30:20.683Z,22.91
2018-08-19T21:32:46.963Z,22.70
2018-08-19T21:35:13.282Z,22.53
2018-08-19T21:37:39.597Z,22.45
2018-08-19T21:40:05.910Z,22.40
2018-08-19T21:42:32.352Z,22.40
2018-08-19T21:44:58.666Z,22.31
2018-08-19T21:47:24.979Z,22.22
2018-08-19T21:49:51.297Z,22.23
2018-08-19T21:52:17.615Z,22.07
2018-08-19T21:54:43.925Z,22.00
2018-08-19T21:57:10.282Z,22.01
2018-08-19T21:59:36.628Z,21.97
2018-08-19T22:02:02.947Z,21.87
2018-08-19T22:04:29.251Z,21.70
2018-08-19T22:06:55.571Z,21.55
2018-08-19T22:09:21.884Z,21.44
2018-08-19T22:11:48.197Z,21.35
2018-08-19T22:14:14.518Z,21.33
2018-08-19T22:16:40.836Z,21.33
2018-08-19T22:19:07.152Z,21.28
2018-08-19T22:21:33.466Z,21.21
2018-08-19T22:23:59.787Z,21.16
2018-08-19T22:26:26.102Z,21.21
2018-08-19T22:28:52.432Z,21.11
2018-08-19T22:31:18.789Z,21.15
2018-08-19T22:33:45.102Z,21.18
2018-08-19T22:36:11.416Z,21.18
2018-08-19T22:38:37.730Z,20.86
2018-08-19T22:41:04.047Z,20.63
2018-08-19T22:43:30.360Z,20.62
2018-08-19T22:45:56.709Z,20.67
2018-08-19T22:48:23.021Z,20.76
2018-08-19T22:50:49.331Z,20.82
2018-08-19T22:53:15.667Z,20.67
2018-08-19T22:55:42.012Z,20.67
2018-08-19T22:58:08.319Z,20.60
2018-08-19T23:00:34.627Z,20.55
2018-08-19T23:03:00.938Z,20.53
2018-08-19T23:05:27.264Z,20.51
2018-08-19T23:07:53.641Z,20.52
2018-08-19T23:10:19.948Z,20.52
2018-08-19T23:12:46.266Z,20.45
2018-08-19T23:15:12.589Z,20.45
2018-08-19T23:17:38.906Z,20.52
2018-08-19T23:20:05.269Z,20.57
2018-08-19T23:22:31.543Z,20.57
2018-08-19T23:24:57.847Z,20.51
2018-08-19T23:27:24.158Z,20.55
2018-08-19T23:29:50.493Z,20.64
2018-08-19T23:32:16.833Z,20.72
2018-08-19T23:34:43.178Z,20.77
2018-08-19T23:37:09.495Z,20.84
2018-08-19T23:39:35.814Z,20.87
2018-08-19T23:42:02.125Z,20.84
2018-08-19T23:44:28.436Z,20.83
2018-08-19T23:46:54.749Z,20.83
2018-08-19T23:49:21.095Z,20.84
2018-08-19T23:51:47.403Z,20.78
2018-08-19T23:54:13.711Z,20.81
2018-08-19T23:56:40.024Z,20.79
2018-08-19T23:59:06.336Z,20.68
